Orbital elements of COSMOS 970 DEB
| Launched | 20 December 1977 |
| Flight ended | – |
| Launch site | Tyuratam Missile and Space Center, Kazakhstan (Also known as Baikonur Cosmodrome) |
| Owner | Commonwealth of Independent States (former USSR) |
| NORAD ID | 10888 |
| Date fetched |
Epoch osculation |
Inc. [°] |
Ecc. | RA asc node [hr] |
Arg Peri. [°] |
Mean anom [°] |
Mean motion [rev/day] |
Abs. mag |
| Date fetched |
Epoch osculation |
Inc. [°] |
Ecc. | RA asc node [hr] |
Arg Peri. [°] |
Mean anom [°] |
Mean motion [rev/day] |
Abs. mag |
| 2026 May 03 17:57 | 2026 Apr 30 11:46:46 | 65.5126 | 0.01312 | 9.8295 | 288.2354 | 221.2912 | 13.62480 | – |
| 2026 May 02 17:57 | 2026 Apr 30 11:46:46 | 65.5126 | 0.01312 | 9.8295 | 288.2354 | 221.2912 | 13.62480 | – |
| 2026 May 01 17:56 | 2026 Apr 30 11:46:46 | 65.5126 | 0.01312 | 9.8295 | 288.2354 | 221.2912 | 13.62480 | – |
| 2026 Apr 30 17:56 | 2026 Apr 30 11:46:46 | 65.5126 | 0.01312 | 9.8295 | 288.2354 | 221.2912 | 13.62480 | – |
| 2026 Apr 29 17:57 | 2026 Apr 24 13:05:13 | 65.5130 | 0.01310 | 10.8003 | 290.5270 | 221.2912 | 13.62480 | – |
| 2026 Apr 28 17:56 | 2026 Apr 24 13:05:13 | 65.5130 | 0.01310 | 10.8003 | 290.5270 | 221.2912 | 13.62480 | – |
| 2026 Apr 27 17:58 | 2026 Apr 24 13:05:13 | 65.5130 | 0.01310 | 10.8003 | 290.5270 | 221.2912 | 13.62480 | – |
| 2026 Apr 26 17:58 | 2026 Apr 24 13:05:13 | 65.5130 | 0.01310 | 10.8003 | 290.5270 | 221.2912 | 13.62480 | – |
| 2026 Apr 25 17:58 | 2026 Apr 24 13:05:13 | 65.5130 | 0.01310 | 10.8003 | 290.5270 | 221.2912 | 13.62480 | – |
| 2026 Apr 24 17:59 | 2026 Apr 24 13:05:13 | 65.5130 | 0.01310 | 10.8003 | 290.5270 | 221.2912 | 13.62480 | – |
| 2026 Apr 23 17:57 | 2026 Apr 19 03:52:48 | 65.5138 | 0.01308 | 11.6793 | 292.6115 | 221.2912 | 13.62480 | – |
| 2026 Apr 22 17:57 | 2026 Apr 19 03:52:48 | 65.5138 | 0.01308 | 11.6793 | 292.6115 | 221.2912 | 13.62480 | – |
| 2026 Apr 21 17:57 | 2026 Apr 19 03:52:48 | 65.5138 | 0.01308 | 11.6793 | 292.6115 | 221.2912 | 13.62480 | – |
| 2026 Apr 20 17:57 | 2026 Apr 19 03:52:48 | 65.5138 | 0.01308 | 11.6793 | 292.6115 | 221.2912 | 13.62480 | – |
| 2026 Apr 19 17:58 | 2026 Apr 19 03:52:48 | 65.5138 | 0.01308 | 11.6793 | 292.6115 | 221.2912 | 13.62480 | – |
| 2026 Apr 18 17:56 | 2026 Apr 13 05:12:11 | 65.5144 | 0.01305 | 12.6499 | 294.9338 | 221.2912 | 13.62480 | – |
| 2026 Apr 16 17:57 | 2026 Apr 13 05:12:11 | 65.5144 | 0.01305 | 12.6499 | 294.9338 | 221.2912 | 13.62480 | – |
| 2026 Apr 14 17:57 | 2026 Apr 13 05:12:11 | 65.5144 | 0.01305 | 12.6499 | 294.9338 | 221.2912 | 13.62480 | – |
| 2026 Apr 13 17:57 | 2026 Apr 13 05:12:11 | 65.5144 | 0.01305 | 12.6499 | 294.9338 | 221.2912 | 13.62480 | – |
| 2026 Apr 12 17:57 | 2026 Apr 08 07:10:49 | 65.5147 | 0.01302 | 13.4528 | 296.8645 | 221.2912 | 13.62480 | – |
| 2026 Apr 11 17:57 | 2026 Apr 08 07:10:49 | 65.5147 | 0.01302 | 13.4528 | 296.8645 | 221.2912 | 13.62480 | – |
| 2026 Apr 10 17:58 | 2026 Apr 08 07:10:49 | 65.5147 | 0.01302 | 13.4528 | 296.8645 | 221.2912 | 13.62480 | – |
| 2026 Apr 09 18:01 | 2026 Apr 08 07:10:49 | 65.5147 | 0.01302 | 13.4528 | 296.8645 | 221.2912 | 13.62480 | – |
| 2026 Apr 08 17:57 | 2026 Apr 08 07:10:49 | 65.5147 | 0.01302 | 13.4528 | 296.8645 | 221.2912 | 13.62480 | – |
| 2026 Apr 07 17:57 | 2026 Apr 01 07:47:26 | 65.5139 | 0.01298 | 14.5914 | 299.6020 | 221.2912 | 13.62480 | – |
| 2026 Apr 06 17:57 | 2026 Apr 01 07:47:26 | 65.5139 | 0.01298 | 14.5914 | 299.6020 | 221.2912 | 13.62480 | – |